sensor_id;sensor_type;location;lat;lon;timestamp;temperature;humidity
12164;DHT22;6145;50.192;10.064;2023-08-31T06:03:07;14.40;91.70
12164;DHT22;6145;50.192;10.064;2023-08-31T06:05:36;14.30;91.70
12164;DHT22;6145;50.192;10.064;2023-08-31T06:08:06;14.90;92.00
12164;DHT22;6145;50.192;10.064;2023-08-31T06:10:33;14.50;91.90
12164;DHT22;6145;50.192;10.064;2023-08-31T06:12:59;14.50;91.90
12164;DHT22;6145;50.192;10.064;2023-08-31T06:15:26;14.50;91.90
12164;DHT22;6145;50.192;10.064;2023-08-31T06:17:53;14.50;91.90
12164;DHT22;6145;50.192;10.064;2023-08-31T06:20:21;14.60;92.00
12164;DHT22;6145;50.192;10.064;2023-08-31T06:22:49;14.60;92.00
12164;DHT22;6145;50.192;10.064;2023-08-31T06:25:16;14.60;92.30
12164;DHT22;6145;50.192;10.064;2023-08-31T06:27:44;14.60;92.00
12164;DHT22;6145;50.192;10.064;2023-08-31T06:30:11;14.70;92.30
12164;DHT22;6145;50.192;10.064;2023-08-31T06:32:42;14.80;93.30
12164;DHT22;6145;50.192;10.064;2023-08-31T06:35:08;16.00;93.80
12164;DHT22;6145;50.192;10.064;2023-08-31T06:37:37;16.30;93.80
12164;DHT22;6145;50.192;10.064;2023-08-31T06:40:06;15.20;92.90
12164;DHT22;6145;50.192;10.064;2023-08-31T06:42:33;15.30;92.70
12164;DHT22;6145;50.192;10.064;2023-08-31T06:45:00;15.30;92.40
12164;DHT22;6145;50.192;10.064;2023-08-31T06:47:27;15.30;92.30
12164;DHT22;6145;50.192;10.064;2023-08-31T06:49:55;15.90;92.50
12164;DHT22;6145;50.192;10.064;2023-08-31T06:52:23;15.30;92.00
12164;DHT22;6145;50.192;10.064;2023-08-31T06:54:53;15.70;92.10
12164;DHT22;6145;50.192;10.064;2023-08-31T06:57:23;15.30;92.00
12164;DHT22;6145;50.192;10.064;2023-08-31T06:59:50;15.30;92.10
12164;DHT22;6145;50.192;10.064;2023-08-31T07:02:17;15.40;92.70
12164;DHT22;6145;50.192;10.064;2023-08-31T07:04:44;15.50;92.80
12164;DHT22;6145;50.192;10.064;2023-08-31T07:07:11;15.60;93.20
12164;DHT22;6145;50.192;10.064;2023-08-31T07:09:39;15.80;93.30
12164;DHT22;6145;50.192;10.064;2023-08-31T07:12:08;15.90;93.10
12164;DHT22;6145;50.192;10.064;2023-08-31T07:14:34;16.90;93.40
12164;DHT22;6145;50.192;10.064;2023-08-31T07:17:01;16.10;92.90
12164;DHT22;6145;50.192;10.064;2023-08-31T07:19:28;16.30;92.90
12164;DHT22;6145;50.192;10.064;2023-08-31T07:21:55;17.90;93.30
12164;DHT22;6145;50.192;10.064;2023-08-31T07:24:23;16.60;92.30
12164;DHT22;6145;50.192;10.064;2023-08-31T07:26:50;16.70;92.20
12164;DHT22;6145;50.192;10.064;2023-08-31T07:29:18;17.00;91.60
12164;DHT22;6145;50.192;10.064;2023-08-31T07:31:45;16.80;90.80
12164;DHT22;6145;50.192;10.064;2023-08-31T07:34:13;16.80;90.50
12164;DHT22;6145;50.192;10.064;2023-08-31T07:36:39;16.80;90.60
12164;DHT22;6145;50.192;10.064;2023-08-31T07:39:14;16.90;90.80
12164;DHT22;6145;50.192;10.064;2023-08-31T07:41:43;17.50;91.40
12164;DHT22;6145;50.192;10.064;2023-08-31T07:44:10;17.10;91.40
12164;DHT22;6145;50.192;10.064;2023-08-31T08:37:14;19.00;82.10
12164;DHT22;6145;50.192;10.064;2023-08-31T08:39:40;19.00;82.30
12164;DHT22;6145;50.192;10.064;2023-08-31T08:42:10;19.20;82.10
12164;DHT22;6145;50.192;10.064;2023-08-31T08:44:37;19.30;80.30
12164;DHT22;6145;50.192;10.064;2023-08-31T08:47:04;19.50;80.00
12164;DHT22;6145;50.192;10.064;2023-08-31T08:49:31;19.50;78.70
12164;DHT22;6145;50.192;10.064;2023-08-31T08:51:59;19.60;78.60
12164;DHT22;6145;50.192;10.064;2023-08-31T08:54:27;19.60;78.50
12164;DHT22;6145;50.192;10.064;2023-08-31T08:56:54;19.70;78.90
12164;DHT22;6145;50.192;10.064;2023-08-31T08:59:21;19.70;76.70
12164;DHT22;6145;50.192;10.064;2023-08-31T09:01:48;19.70;76.00
12164;DHT22;6145;50.192;10.064;2023-08-31T09:04:15;19.60;77.30
12164;DHT22;6145;50.192;10.064;2023-08-31T09:06:42;19.80;77.60
12164;DHT22;6145;50.192;10.064;2023-08-31T10:50:20;20.50;67.40
12164;DHT22;6145;50.192;10.064;2023-08-31T10:52:48;20.50;67.30
12164;DHT22;6145;50.192;10.064;2023-08-31T10:55:15;20.50;68.00
12164;DHT22;6145;50.192;10.064;2023-08-31T10:57:45;20.70;68.10
12164;DHT22;6145;50.192;10.064;2023-08-31T11:00:12;20.70;68.90
12164;DHT22;6145;50.192;10.064;2023-08-31T11:02:42;20.50;68.30
12164;DHT22;6145;50.192;10.064;2023-08-31T11:05:11;20.50;69.30
12164;DHT22;6145;50.192;10.064;2023-08-31T11:07:40;20.80;69.00
12164;DHT22;6145;50.192;10.064;2023-08-31T11:10:12;20.50;68.70
12164;DHT22;6145;50.192;10.064;2023-08-31T11:12:41;20.40;68.20
12164;DHT22;6145;50.192;10.064;2023-08-31T11:15:10;20.40;67.60
12164;DHT22;6145;50.192;10.064;2023-08-31T11:17:37;20.40;67.60
12164;DHT22;6145;50.192;10.064;2023-08-31T11:20:06;20.30;67.00
12164;DHT22;6145;50.192;10.064;2023-08-31T11:22:39;20.40;67.50
12164;DHT22;6145;50.192;10.064;2023-08-31T11:25:09;20.70;67.70
12164;DHT22;6145;50.192;10.064;2023-08-31T11:27:36;20.40;67.40
12164;DHT22;6145;50.192;10.064;2023-08-31T11:30:10;20.40;67.70
12164;DHT22;6145;50.192;10.064;2023-08-31T11:32:44;20.40;66.70
12164;DHT22;6145;50.192;10.064;2023-08-31T11:35:12;20.40;67.10
12164;DHT22;6145;50.192;10.064;2023-08-31T11:37:41;20.60;67.10
12164;DHT22;6145;50.192;10.064;2023-08-31T11:40:09;20.10;66.40
12164;DHT22;6145;50.192;10.064;2023-08-31T11:42:37;20.10;66.80
12164;DHT22;6145;50.192;10.064;2023-08-31T11:45:09;20.00;67.00
12164;DHT22;6145;50.192;10.064;2023-08-31T11:47:36;20.00;67.20
12164;DHT22;6145;50.192;10.064;2023-08-31T11:50:06;20.00;67.30
12164;DHT22;6145;50.192;10.064;2023-08-31T11:52:34;19.90;67.40
12164;DHT22;6145;50.192;10.064;2023-08-31T11:55:12;19.90;67.60
12164;DHT22;6145;50.192;10.064;2023-08-31T11:57:39;20.00;68.10
12164;DHT22;6145;50.192;10.064;2023-08-31T12:00:07;20.60;68.50
12164;DHT22;6145;50.192;10.064;2023-08-31T12:02:36;20.00;67.90
12164;DHT22;6145;50.192;10.064;2023-08-31T12:05:03;20.00;67.20
12164;DHT22;6145;50.192;10.064;2023-08-31T12:07:31;20.00;67.20
12164;DHT22;6145;50.192;10.064;2023-08-31T12:10:02;19.90;66.30
12164;DHT22;6145;50.192;10.064;2023-08-31T12:12:31;19.80;66.80
12164;DHT22;6145;50.192;10.064;2023-08-31T12:15:01;20.70;67.60
12164;DHT22;6145;50.192;10.064;2023-08-31T12:17:29;19.80;67.10
12164;DHT22;6145;50.192;10.064;2023-08-31T12:20:02;20.90;68.60
12164;DHT22;6145;50.192;10.064;2023-08-31T12:22:31;19.80;67.20
12164;DHT22;6145;50.192;10.064;2023-08-31T12:25:04;19.80;67.00
12164;DHT22;6145;50.192;10.064;2023-08-31T12:27:32;19.80;66.90
12164;DHT22;6145;50.192;10.064;2023-08-31T12:30:01;19.80;66.10
12164;DHT22;6145;50.192;10.064;2023-08-31T12:32:36;19.80;66.60
12164;DHT22;6145;50.192;10.064;2023-08-31T12:35:04;19.70;66.60
12164;DHT22;6145;50.192;10.064;2023-08-31T12:37:35;19.70;66.90
12164;DHT22;6145;50.192;10.064;2023-08-31T12:40:02;19.70;67.00
12164;DHT22;6145;50.192;10.064;2023-08-31T12:42:33;19.70;67.60
12164;DHT22;6145;50.192;10.064;2023-08-31T12:45:00;19.80;68.10
12164;DHT22;6145;50.192;10.064;2023-08-31T12:47:27;19.80;68.20
12164;DHT22;6145;50.192;10.064;2023-08-31T12:49:54;19.80;67.90
12164;DHT22;6145;50.192;10.064;2023-08-31T12:52:21;19.90;68.30
12164;DHT22;6145;50.192;10.064;2023-08-31T12:54:49;20.00;67.90
12164;DHT22;6145;50.192;10.064;2023-08-31T12:57:16;20.30;68.40
12164;DHT22;6145;50.192;10.064;2023-08-31T12:59:45;20.10;68.10
12164;DHT22;6145;50.192;10.064;2023-08-31T13:02:14;20.10;68.40
12164;DHT22;6145;50.192;10.064;2023-08-31T13:04:45;20.20;67.90
12164;DHT22;6145;50.192;10.064;2023-08-31T13:07:12;20.30;67.50
12164;DHT22;6145;50.192;10.064;2023-08-31T13:09:40;20.30;67.50
12164;DHT22;6145;50.192;10.064;2023-08-31T13:12:07;20.30;67.80
12164;DHT22;6145;50.192;10.064;2023-08-31T13:14:37;20.40;67.40
12164;DHT22;6145;50.192;10.064;2023-08-31T13:17:06;20.50;66.80
12164;DHT22;6145;50.192;10.064;2023-08-31T13:19:36;20.50;66.80
12164;DHT22;6145;50.192;10.064;2023-08-31T13:22:03;21.50;67.90
12164;DHT22;6145;50.192;10.064;2023-08-31T13:24:30;20.60;66.80
12164;DHT22;6145;50.192;10.064;2023-08-31T13:26:57;20.60;66.70
12164;DHT22;6145;50.192;10.064;2023-08-31T13:29:25;20.70;66.60
12164;DHT22;6145;50.192;10.064;2023-08-31T13:31:52;20.60;66.80
12164;DHT22;6145;50.192;10.064;2023-08-31T13:34:20;21.30;68.30
12164;DHT22;6145;50.192;10.064;2023-08-31T13:36:49;20.70;67.00
12164;DHT22;6145;50.192;10.064;2023-08-31T13:39:16;20.70;67.20
12164;DHT22;6145;50.192;10.064;2023-08-31T13:41:43;20.70;66.70
12164;DHT22;6145;50.192;10.064;2023-08-31T13:44:16;21.20;67.60
12164;DHT22;6145;50.192;10.064;2023-08-31T13:46:44;20.80;67.00
12164;DHT22;6145;50.192;10.064;2023-08-31T13:49:11;20.80;66.50
12164;DHT22;6145;50.192;10.064;2023-08-31T13:51:40;20.80;66.60
12164;DHT22;6145;50.192;10.064;2023-08-31T13:54:07;20.80;66.80
12164;DHT22;6145;50.192;10.064;2023-08-31T13:56:34;20.90;67.10
12164;DHT22;6145;50.192;10.064;2023-08-31T13:59:01;21.10;67.30
12164;DHT22;6145;50.192;10.064;2023-08-31T14:01:28;20.90;66.70
12164;DHT22;6145;50.192;10.064;2023-08-31T14:03:55;20.90;66.20
12164;DHT22;6145;50.192;10.064;2023-08-31T14:06:22;21.00;65.70
12164;DHT22;6145;50.192;10.064;2023-08-31T14:08:51;21.00;65.90
12164;DHT22;6145;50.192;10.064;2023-08-31T14:11:19;21.50;65.40
12164;DHT22;6145;50.192;10.064;2023-08-31T14:13:46;21.10;65.30
12164;DHT22;6145;50.192;10.064;2023-08-31T14:16:13;21.30;64.30
12164;DHT22;6145;50.192;10.064;2023-08-31T14:18:40;21.30;64.60
12164;DHT22;6145;50.192;10.064;2023-08-31T14:21:14;21.30;64.20
12164;DHT22;6145;50.192;10.064;2023-08-31T14:23:41;22.20;65.80
12164;DHT22;6145;50.192;10.064;2023-08-31T14:26:10;22.80;66.80
12164;DHT22;6145;50.192;10.064;2023-08-31T14:28:43;21.50;64.80
12164;DHT22;6145;50.192;10.064;2023-08-31T14:31:11;21.50;64.60
12164;DHT22;6145;50.192;10.064;2023-08-31T14:33:39;22.00;63.70
12164;DHT22;6145;50.192;10.064;2023-08-31T14:36:06;21.50;63.40
12164;DHT22;6145;50.192;10.064;2023-08-31T14:38:33;21.40;63.30
12164;DHT22;6145;50.192;10.064;2023-08-31T14:41:05;21.40;62.10
12164;DHT22;6145;50.192;10.064;2023-08-31T14:46:37;21.30;62.80
12164;DHT22;6145;50.192;10.064;2023-08-31T14:51:57;21.40;63.70
12164;DHT22;6145;50.192;10.064;2023-08-31T14:54:30;21.40;63.90
12164;DHT22;6145;50.192;10.064;2023-08-31T14:56:57;21.40;63.30
12164;DHT22;6145;50.192;10.064;2023-08-31T14:59:24;21.50;62.10
12164;DHT22;6145;50.192;10.064;2023-08-31T15:01:52;21.40;61.40
12164;DHT22;6145;50.192;10.064;2023-08-31T15:04:20;21.60;62.10
12164;DHT22;6145;50.192;10.064;2023-08-31T15:06:47;21.50;60.70
12164;DHT22;6145;50.192;10.064;2023-08-31T15:09:13;21.60;60.60
12164;DHT22;6145;50.192;10.064;2023-08-31T15:11:41;21.60;60.80
12164;DHT22;6145;50.192;10.064;2023-08-31T15:14:10;21.60;61.10
12164;DHT22;6145;50.192;10.064;2023-08-31T15:16:37;21.70;61.80
12164;DHT22;6145;50.192;10.064;2023-08-31T15:19:06;21.70;60.30
12164;DHT22;6145;50.192;10.064;2023-08-31T15:21:33;21.70;62.10
12164;DHT22;6145;50.192;10.064;2023-08-31T15:24:00;21.70;62.20
12164;DHT22;6145;50.192;10.064;2023-08-31T15:26:28;21.90;61.60
12164;DHT22;6145;50.192;10.064;2023-08-31T15:28:55;21.80;61.70
12164;DHT22;6145;50.192;10.064;2023-08-31T15:31:21;21.60;60.90
12164;DHT22;6145;50.192;10.064;2023-08-31T15:33:49;21.60;62.00
12164;DHT22;6145;50.192;10.064;2023-08-31T15:36:17;21.60;62.70
12164;DHT22;6145;50.192;10.064;2023-08-31T15:38:44;21.70;63.90
12164;DHT22;6145;50.192;10.064;2023-08-31T15:41:13;21.60;63.50
12164;DHT22;6145;50.192;10.064;2023-08-31T15:43:40;21.70;63.50
12164;DHT22;6145;50.192;10.064;2023-08-31T15:46:08;21.70;64.40
12164;DHT22;6145;50.192;10.064;2023-08-31T15:48:35;21.70;63.60
12164;DHT22;6145;50.192;10.064;2023-08-31T15:51:02;21.80;63.70
12164;DHT22;6145;50.192;10.064;2023-08-31T15:53:32;21.80;63.60
12164;DHT22;6145;50.192;10.064;2023-08-31T15:56:02;21.80;62.70
12164;DHT22;6145;50.192;10.064;2023-08-31T15:58:30;21.80;62.20
12164;DHT22;6145;50.192;10.064;2023-08-31T16:00:57;21.70;61.80
12164;DHT22;6145;50.192;10.064;2023-08-31T16:03:27;21.80;61.80
12164;DHT22;6145;50.192;10.064;2023-08-31T16:05:56;21.80;62.50
12164;DHT22;6145;50.192;10.064;2023-08-31T16:08:24;21.80;62.50
12164;DHT22;6145;50.192;10.064;2023-08-31T16:10:52;21.80;62.50
12164;DHT22;6145;50.192;10.064;2023-08-31T16:13:19;21.90;62.20
12164;DHT22;6145;50.192;10.064;2023-08-31T16:15:47;21.90;62.10
12164;DHT22;6145;50.192;10.064;2023-08-31T16:18:15;21.90;61.10
12164;DHT22;6145;50.192;10.064;2023-08-31T16:20:42;21.70;61.30
12164;DHT22;6145;50.192;10.064;2023-08-31T16:23:08;21.70;61.20
12164;DHT22;6145;50.192;10.064;2023-08-31T16:25:35;21.60;60.00
12164;DHT22;6145;50.192;10.064;2023-08-31T16:28:04;21.50;60.00
12164;DHT22;6145;50.192;10.064;2023-08-31T16:30:31;21.50;59.40
12164;DHT22;6145;50.192;10.064;2023-08-31T16:32:58;21.30;60.00
12164;DHT22;6145;50.192;10.064;2023-08-31T16:35:25;21.30;59.80
12164;DHT22;6145;50.192;10.064;2023-08-31T16:37:52;21.50;59.80
12164;DHT22;6145;50.192;10.064;2023-08-31T16:40:19;21.20;59.70
12164;DHT22;6145;50.192;10.064;2023-08-31T16:42:46;21.10;59.20
12164;DHT22;6145;50.192;10.064;2023-08-31T16:45:14;21.20;59.50
12164;DHT22;6145;50.192;10.064;2023-08-31T16:47:41;21.00;59.90
12164;DHT22;6145;50.192;10.064;2023-08-31T16:50:09;20.90;59.60
12164;DHT22;6145;50.192;10.064;2023-08-31T16:52:36;20.90;59.70
12164;DHT22;6145;50.192;10.064;2023-08-31T16:55:03;20.80;60.30
12164;DHT22;6145;50.192;10.064;2023-08-31T16:57:30;20.70;60.50
12164;DHT22;6145;50.192;10.064;2023-08-31T16:59:57;20.70;60.70
12164;DHT22;6145;50.192;10.064;2023-08-31T17:02:25;20.60;60.70
12164;DHT22;6145;50.192;10.064;2023-08-31T17:04:52;20.60;60.90
12164;DHT22;6145;50.192;10.064;2023-08-31T17:07:19;20.50;61.40
12164;DHT22;6145;50.192;10.064;2023-08-31T17:09:45;20.50;61.60
12164;DHT22;6145;50.192;10.064;2023-08-31T17:12:12;20.60;61.50
12164;DHT22;6145;50.192;10.064;2023-08-31T17:14:40;20.30;61.30
12164;DHT22;6145;50.192;10.064;2023-08-31T17:17:10;20.30;61.50
12164;DHT22;6145;50.192;10.064;2023-08-31T17:19:39;20.70;62.20
12164;DHT22;6145;50.192;10.064;2023-08-31T17:22:05;20.20;62.50
12164;DHT22;6145;50.192;10.064;2023-08-31T17:24:33;20.40;62.70
12164;DHT22;6145;50.192;10.064;2023-08-31T17:26:59;19.90;62.50
12164;DHT22;6145;50.192;10.064;2023-08-31T17:29:28;20.20;62.30
12164;DHT22;6145;50.192;10.064;2023-08-31T17:31:55;19.90;62.50
12164;DHT22;6145;50.192;10.064;2023-08-31T17:34:22;20.00;62.90
12164;DHT22;6145;50.192;10.064;2023-08-31T17:36:50;20.40;64.00
12164;DHT22;6145;50.192;10.064;2023-08-31T17:39:17;19.80;63.40
12164;DHT22;6145;50.192;10.064;2023-08-31T17:41:43;19.80;64.40
12164;DHT22;6145;50.192;10.064;2023-08-31T17:44:17;19.80;64.60
12164;DHT22;6145;50.192;10.064;2023-08-31T17:46:44;19.80;64.80
12164;DHT22;6145;50.192;10.064;2023-08-31T17:49:11;19.80;65.00
12164;DHT22;6145;50.192;10.064;2023-08-31T17:51:38;19.80;65.70
12164;DHT22;6145;50.192;10.064;2023-08-31T17:54:06;19.70;65.70
12164;DHT22;6145;50.192;10.064;2023-08-31T17:56:33;19.60;65.90
12164;DHT22;6145;50.192;10.064;2023-08-31T17:59:00;19.70;66.70
12164;DHT22;6145;50.192;10.064;2023-08-31T18:01:29;19.60;67.00
12164;DHT22;6145;50.192;10.064;2023-08-31T18:03:56;19.60;67.60
12164;DHT22;6145;50.192;10.064;2023-08-31T18:06:23;19.50;67.70
12164;DHT22;6145;50.192;10.064;2023-08-31T18:08:50;19.60;68.10
12164;DHT22;6145;50.192;10.064;2023-08-31T18:11:18;19.60;68.50
12164;DHT22;6145;50.192;10.064;2023-08-31T18:13:45;19.40;68.50
12164;DHT22;6145;50.192;10.064;2023-08-31T18:16:12;19.40;68.40
12164;DHT22;6145;50.192;10.064;2023-08-31T18:18:39;19.40;68.70
12164;DHT22;6145;50.192;10.064;2023-08-31T18:21:06;19.30;68.90
12164;DHT22;6145;50.192;10.064;2023-08-31T18:23:33;19.80;69.60
12164;DHT22;6145;50.192;10.064;2023-08-31T18:26:00;19.30;69.30
12164;DHT22;6145;50.192;10.064;2023-08-31T18:28:30;19.20;69.10
12164;DHT22;6145;50.192;10.064;2023-08-31T18:30:59;19.20;69.30
12164;DHT22;6145;50.192;10.064;2023-08-31T18:33:27;19.20;69.60
12164;DHT22;6145;50.192;10.064;2023-08-31T18:35:55;19.10;69.80
12164;DHT22;6145;50.192;10.064;2023-08-31T18:38:24;19.20;70.20
12164;DHT22;6145;50.192;10.064;2023-08-31T18:40:53;19.00;70.20
12164;DHT22;6145;50.192;10.064;2023-08-31T18:43:21;19.00;70.40
12164;DHT22;6145;50.192;10.064;2023-08-31T18:45:52;18.90;70.50
12164;DHT22;6145;50.192;10.064;2023-08-31T18:48:19;18.90;70.70
12164;DHT22;6145;50.192;10.064;2023-08-31T18:50:46;18.80;70.50
12164;DHT22;6145;50.192;10.064;2023-08-31T18:53:19;18.80;70.60
12164;DHT22;6145;50.192;10.064;2023-08-31T18:55:46;18.80;70.70
12164;DHT22;6145;50.192;10.064;2023-08-31T18:58:14;18.70;70.70
12164;DHT22;6145;50.192;10.064;2023-08-31T19:00:41;18.70;70.80
12164;DHT22;6145;50.192;10.064;2023-08-31T19:03:09;18.60;70.70
12164;DHT22;6145;50.192;10.064;2023-08-31T19:05:40;18.60;70.50
12164;DHT22;6145;50.192;10.064;2023-08-31T19:08:14;18.60;70.30
12164;DHT22;6145;50.192;10.064;2023-08-31T19:10:41;18.50;70.00
12164;DHT22;6145;50.192;10.064;2023-08-31T19:13:08;18.40;70.30
12164;DHT22;6145;50.192;10.064;2023-08-31T19:15:38;18.50;70.60
12164;DHT22;6145;50.192;10.064;2023-08-31T19:18:05;18.30;70.60
12164;DHT22;6145;50.192;10.064;2023-08-31T19:20:37;18.30;70.70
12164;DHT22;6145;50.192;10.064;2023-08-31T19:23:06;18.30;71.00
12164;DHT22;6145;50.192;10.064;2023-08-31T19:25:34;18.40;71.10
12164;DHT22;6145;50.192;10.064;2023-08-31T19:28:15;17.20;70.10
12164;DHT22;6145;50.192;10.064;2023-08-31T19:30:49;18.20;72.00
12164;DHT22;6145;50.192;10.064;2023-08-31T19:33:30;18.10;70.90
12164;DHT22;6145;50.192;10.064;2023-08-31T19:36:01;17.90;71.00
12164;DHT22;6145;50.192;10.064;2023-08-31T19:38:31;18.20;71.40
12164;DHT22;6145;50.192;10.064;2023-08-31T19:41:07;18.00;71.30
12164;DHT22;6145;50.192;10.064;2023-08-31T19:43:46;18.00;71.70
12164;DHT22;6145;50.192;10.064;2023-08-31T19:46:14;18.00;71.80
12164;DHT22;6145;50.192;10.064;2023-08-31T19:48:42;17.90;71.60
12164;DHT22;6145;50.192;10.064;2023-08-31T19:51:23;17.90;71.90
12164;DHT22;6145;50.192;10.064;2023-08-31T19:53:52;17.90;72.10
12164;DHT22;6145;50.192;10.064;2023-08-31T19:56:20;17.80;71.80
12164;DHT22;6145;50.192;10.064;2023-08-31T19:58:48;17.70;71.80
12164;DHT22;6145;50.192;10.064;2023-08-31T20:01:26;17.80;72.10
12164;DHT22;6145;50.192;10.064;2023-08-31T20:03:59;17.70;72.10
12164;DHT22;6145;50.192;10.064;2023-08-31T20:06:50;18.20;72.80
12164;DHT22;6145;50.192;10.064;2023-08-31T20:09:38;17.70;72.70
12164;DHT22;6145;50.192;10.064;2023-08-31T20:12:22;17.20;73.00
12164;DHT22;6145;50.192;10.064;2023-08-31T20:15:04;17.60;72.60
12164;DHT22;6145;50.192;10.064;2023-08-31T20:17:51;17.50;73.00
12164;DHT22;6145;50.192;10.064;2023-08-31T20:20:26;17.60;73.10
12164;DHT22;6145;50.192;10.064;2023-08-31T20:22:57;17.50;73.20
